createdAt,value
2019-05-10T00:02:09.657Z,84.80
2019-05-10T00:07:01.135Z,83.80
2019-05-10T00:11:52.459Z,83.90
2019-05-10T00:21:37.491Z,84.80
2019-05-10T00:26:31.144Z,83.50
2019-05-10T00:31:22.627Z,83.10
2019-05-10T00:36:13.966Z,82.40
2019-05-10T00:41:05.369Z,83.60
2019-05-10T00:45:56.769Z,84.80
2019-05-10T00:50:48.186Z,85.20
2019-05-10T00:55:39.555Z,86.30
2019-05-10T01:00:33.198Z,86.00
2019-05-10T01:05:24.614Z,85.50
2019-05-10T01:10:16.030Z,85.10
2019-05-10T01:15:07.395Z,86.00
2019-05-10T01:19:59.075Z,86.10
2019-05-10T01:24:50.324Z,87.30
2019-05-10T01:29:41.671Z,87.00
2019-05-10T01:34:33.086Z,85.60
2019-05-10T01:39:24.425Z,86.60
2019-05-10T01:44:15.877Z,86.50
2019-05-10T01:49:07.256Z,86.90
2019-05-10T01:53:58.713Z,88.30
2019-05-10T01:58:50.082Z,86.50
2019-05-10T02:03:41.526Z,87.40
2019-05-10T02:08:32.859Z,88.40
2019-05-10T02:13:24.273Z,88.50
2019-05-10T02:18:15.660Z,88.20
2019-05-10T02:23:07.073Z,87.40
2019-05-10T02:27:58.442Z,87.60
2019-05-10T02:32:49.834Z,88.40
2019-05-10T02:37:41.211Z,86.40
2019-05-10T02:42:32.589Z,84.80
2019-05-10T02:47:24.008Z,84.30
2019-05-10T02:52:15.397Z,84.50
2019-05-10T02:57:06.942Z,85.40
2019-05-10T03:01:58.168Z,85.80
2019-05-10T03:06:49.577Z,84.50
2019-05-10T03:11:40.969Z,85.40
2019-05-10T03:16:32.385Z,86.80
2019-05-10T03:21:23.850Z,87.30
2019-05-10T03:26:15.099Z,88.00
2019-05-10T03:31:06.561Z,89.40
2019-05-10T03:35:57.909Z,89.70
2019-05-10T03:40:49.359Z,90.30
2019-05-10T03:45:40.738Z,90.60
2019-05-10T03:50:32.171Z,90.10
2019-05-10T03:55:23.631Z,89.20
2019-05-10T04:00:14.946Z,89.00
2019-05-10T04:05:06.286Z,90.40
2019-05-10T04:09:57.767Z,89.70
2019-05-10T04:19:40.601Z,87.80
2019-05-10T04:24:36.979Z,88.10
2019-05-10T04:29:23.231Z,86.30
2019-05-10T04:34:14.793Z,85.60
2019-05-10T04:39:06.025Z,85.20
2019-05-10T04:43:57.372Z,82.90
2019-05-10T04:48:48.761Z,80.30
2019-05-10T04:53:40.170Z,80.20
2019-05-10T04:58:31.532Z,78.00
2019-05-10T05:03:25.152Z,59.20
2019-05-10T05:08:16.678Z,59.30
2019-05-10T05:13:08.056Z,58.50
2019-05-10T05:17:59.403Z,62.20
2019-05-10T05:22:50.812Z,45.90
2019-05-10T05:27:42.290Z,22.00
2019-05-10T05:32:45.950Z,16.20
2019-05-10T05:37:24.977Z,13.10
2019-05-10T05:42:16.482Z,8.80
2019-05-10T05:47:07.792Z,9.30
2019-05-10T05:52:01.428Z,6.10
2019-05-10T05:56:53.662Z,6.20
2019-05-10T06:01:44.278Z,4.30
2019-05-10T06:06:35.713Z,3.10
2019-05-10T06:11:37.802Z,3.20
2019-05-10T06:16:21.751Z,6.90
2019-05-10T06:21:09.881Z,9.80
2019-05-10T06:26:01.281Z,5.10
2019-05-10T06:30:52.640Z,4.80
2019-05-10T06:35:44.050Z,4.40
2019-05-10T06:40:48.362Z,7.00
2019-05-10T06:45:26.826Z,6.60
2019-05-10T06:50:32.076Z,9.40
2019-05-10T06:55:11.848Z,9.80
2019-05-10T07:00:08.358Z,11.40
2019-05-10T07:04:54.635Z,12.10
2019-05-10T07:10:18.897Z,12.10
2019-05-10T07:14:46.958Z,12.60
2019-05-10T07:19:34.753Z,12.90
2019-05-10T07:24:27.403Z,11.80
2019-05-10T07:29:41.536Z,13.50
2019-05-10T07:34:17.563Z,12.80
2019-05-10T07:38:56.775Z,13.40
2019-05-10T07:43:48.890Z,12.70
2019-05-10T07:48:53.641Z,12.50
2019-05-10T07:53:33.116Z,14.40
2019-05-10T07:58:24.561Z,12.90
2019-05-10T08:03:24.026Z,13.60
2019-05-10T08:08:09.968Z,12.30
2019-05-10T08:13:04.042Z,13.20
2019-05-10T08:17:52.432Z,12.80
2019-05-10T08:22:46.660Z,14.10
2019-05-10T08:27:41.890Z,13.50
2019-05-10T08:32:35.200Z,13.50
2019-05-10T08:37:38.188Z,14.20
2019-05-10T08:42:48.642Z,13.90
2019-05-10T08:47:12.569Z,12.90
2019-05-10T08:51:54.426Z,12.00
2019-05-10T08:57:00.809Z,12.00
2019-05-10T09:01:53.586Z,10.80
2019-05-10T09:06:28.607Z,10.00
2019-05-10T09:11:20.060Z,8.70
2019-05-10T09:16:13.964Z,8.10
2019-05-10T09:21:14.470Z,8.20
2019-05-10T09:25:54.197Z,7.90
2019-05-10T09:35:51.670Z,6.40
2019-05-10T09:40:28.453Z,8.00
2019-05-10T09:45:24.658Z,6.10
2019-05-10T09:50:13.362Z,5.50
2019-05-10T09:55:17.450Z,6.30
2019-05-10T09:59:57.745Z,6.20
2019-05-10T10:04:47.855Z,6.30
2019-05-10T10:09:47.972Z,5.50
2019-05-10T10:14:43.407Z,4.90
2019-05-10T10:19:27.760Z,5.80
2019-05-10T10:24:20.687Z,7.10
2019-05-10T10:29:11.388Z,7.80
2019-05-10T10:34:03.719Z,7.50
2019-05-10T10:38:54.198Z,8.70
2019-05-10T10:43:48.111Z,9.00
2019-05-10T10:48:37.544Z,9.70
2019-05-10T10:53:28.876Z,9.40
2019-05-10T10:58:21.959Z,9.50
2019-05-10T11:03:15.652Z,10.10
2019-05-10T11:08:11.122Z,9.30
2019-05-10T11:13:18.673Z,9.60
2019-05-10T11:17:55.208Z,8.90
2019-05-10T11:22:53.761Z,9.00
2019-05-10T11:27:42.671Z,8.10
2019-05-10T11:32:36.291Z,7.70
2019-05-10T11:37:36.814Z,7.50
2019-05-10T11:42:23.609Z,7.40
2019-05-10T11:47:27.600Z,8.20
2019-05-10T11:52:13.440Z,8.20
2019-05-10T12:02:06.157Z,9.00
2019-05-10T12:06:51.664Z,8.90
2019-05-10T12:11:52.940Z,9.10
2019-05-10T12:16:25.678Z,8.60
2019-05-10T12:21:21.675Z,9.30
2019-05-10T12:27:21.721Z,9.50
2019-05-10T12:31:02.162Z,11.20
2019-05-10T12:35:53.568Z,11.40
2019-05-10T12:40:46.321Z,10.60
2019-05-10T12:45:36.317Z,10.50
2019-05-10T12:50:27.764Z,10.90
2019-05-10T12:55:19.154Z,10.00
2019-05-10T13:00:16.125Z,9.90
2019-05-10T13:05:01.956Z,8.30
2019-05-10T13:10:08.188Z,9.10
2019-05-10T13:14:53.038Z,10.90
2019-05-10T13:19:36.118Z,11.10
2019-05-10T13:24:29.762Z,20.10
2019-05-10T13:29:21.201Z,18.60
2019-05-10T13:34:12.615Z,18.90
2019-05-10T13:39:06.197Z,17.90
2019-05-10T13:44:06.359Z,17.40
2019-05-10T13:48:49.066Z,18.60
2019-05-10T13:53:40.463Z,18.50
2019-05-10T13:58:31.847Z,17.90
2019-05-10T14:08:19.210Z,18.40
2019-05-10T14:13:16.298Z,18.80
2019-05-10T14:18:04.246Z,19.00
2019-05-10T14:22:59.366Z,19.30
2019-05-10T14:27:47.032Z,18.60
2019-05-10T14:32:38.392Z,18.50
2019-05-10T14:37:29.944Z,17.80
2019-05-10T14:42:33.554Z,15.60
2019-05-10T14:47:12.737Z,14.00
2019-05-10T14:52:04.286Z,15.10
2019-05-10T14:56:55.528Z,12.50
2019-05-10T15:01:46.943Z,13.20
2019-05-10T15:06:39.500Z,13.30
2019-05-10T15:11:33.556Z,12.80
2019-05-10T15:16:31.202Z,12.80
2019-05-10T15:21:12.542Z,13.40
2019-05-10T15:26:12.622Z,13.70
2019-05-10T15:30:57.577Z,13.40
2019-05-10T15:35:54.082Z,13.60
2019-05-10T15:45:34.071Z,13.10
2019-05-10T15:50:32.369Z,12.60
2019-05-10T15:55:29.013Z,13.30
2019-05-10T16:00:10.585Z,12.10
2019-05-10T16:05:02.215Z,13.50
2019-05-10T16:09:56.534Z,13.60
2019-05-10T16:14:47.103Z,12.20
2019-05-10T16:19:38.505Z,12.50
2019-05-10T16:24:29.892Z,13.60
2019-05-10T16:29:23.498Z,13.80
2019-05-10T16:34:14.960Z,14.10
2019-05-10T16:39:06.345Z,13.70
2019-05-10T16:44:00.556Z,13.60
2019-05-10T16:48:51.394Z,13.90
2019-05-10T16:53:46.187Z,14.30
2019-05-10T16:58:36.454Z,16.10
2019-05-10T17:03:29.254Z,15.10
2019-05-10T17:08:19.267Z,15.70
2019-05-10T17:13:10.661Z,16.40
2019-05-10T17:18:04.252Z,16.70
2019-05-10T17:23:11.135Z,16.70
2019-05-10T17:28:00.099Z,15.70
2019-05-10T17:32:38.481Z,16.50
2019-05-10T17:37:37.723Z,16.00
2019-05-10T17:42:21.401Z,15.80
2019-05-10T17:47:14.985Z,16.50
2019-05-10T17:52:06.450Z,17.20
2019-05-10T17:57:00.058Z,17.70
2019-05-10T18:01:53.706Z,19.10
2019-05-10T18:06:45.235Z,19.10
2019-05-10T18:11:44.926Z,24.20
2019-05-10T18:16:27.999Z,23.10
2019-05-10T18:21:24.569Z,23.10
2019-05-10T18:26:12.942Z,26.10
2019-05-10T18:31:04.499Z,26.20
2019-05-10T18:35:58.064Z,25.50
2019-05-10T18:40:49.463Z,29.60
2019-05-10T18:45:40.867Z,31.40
2019-05-10T18:50:32.295Z,31.10
2019-05-10T18:55:23.728Z,33.40
2019-05-10T19:00:25.241Z,36.70
2019-05-10T19:05:08.774Z,36.40
2019-05-10T19:10:00.070Z,36.40
2019-05-10T19:14:51.680Z,34.10
2019-05-10T19:19:42.946Z,35.30
2019-05-10T19:24:34.729Z,36.30
2019-05-10T19:29:28.032Z,37.50
2019-05-10T19:34:17.750Z,37.60
2019-05-10T19:39:08.575Z,36.70
2019-05-10T19:44:05.018Z,36.70
2019-05-10T19:48:51.322Z,39.00
2019-05-10T19:53:44.379Z,37.90
2019-05-10T19:58:34.523Z,37.70
2019-05-10T20:03:25.562Z,41.60
2019-05-10T20:08:16.928Z,42.60
2019-05-10T20:13:10.583Z,39.90
2019-05-10T20:18:02.071Z,39.90
2019-05-10T20:22:53.458Z,39.00
2019-05-10T20:27:44.745Z,35.20
2019-05-10T20:32:36.280Z,36.60
2019-05-10T20:37:27.603Z,40.70
2019-05-10T20:42:19.112Z,40.90
2019-05-10T20:47:10.385Z,43.70
2019-05-10T20:52:02.292Z,39.70
2019-05-10T20:56:53.417Z,40.20
2019-05-10T21:01:44.729Z,39.60
2019-05-10T21:06:36.054Z,43.30
2019-05-10T21:11:27.481Z,44.00
2019-05-10T21:16:18.835Z,44.40
2019-05-10T21:21:10.289Z,43.60
2019-05-10T21:26:01.579Z,45.10
2019-05-10T21:30:54.146Z,52.10
2019-05-10T21:35:44.402Z,47.80
2019-05-10T21:40:35.876Z,48.70
2019-05-10T21:45:27.176Z,53.70
2019-05-10T21:50:18.615Z,51.90
2019-05-10T21:55:09.940Z,49.90
2019-05-10T22:00:01.466Z,48.60
2019-05-10T22:04:52.705Z,55.30
2019-05-10T22:09:44.184Z,53.20
2019-05-10T22:14:35.481Z,55.90
2019-05-10T22:19:26.989Z,60.00
2019-05-10T22:24:18.388Z,79.20
2019-05-10T22:29:09.809Z,81.20
2019-05-10T22:34:01.170Z,83.20
2019-05-10T22:39:08.110Z,82.80
2019-05-10T22:43:43.938Z,85.50
2019-05-10T22:48:35.330Z,84.20
2019-05-10T22:53:26.737Z,82.90
2019-05-10T22:58:18.216Z,83.90
2019-05-10T23:03:09.516Z,79.70
2019-05-10T23:08:00.917Z,78.90
2019-05-10T23:12:52.231Z,79.10
2019-05-10T23:17:43.728Z,79.90
2019-05-10T23:22:35.031Z,82.10
2019-05-10T23:27:26.447Z,81.20
2019-05-10T23:32:17.954Z,82.10
2019-05-10T23:37:09.403Z,80.30
2019-05-10T23:42:00.731Z,82.50
2019-05-10T23:46:52.155Z,82.90
2019-05-10T23:51:43.521Z,83.70
2019-05-10T23:56:34.947Z,82.20
